Portada
METAR-TAF:

METAR-TAF

Aeroports :

Puerto Princesa, Filipines

latitud: 09-44-32N, longitud: 118-45-31E, altitud: 22 m

Observació

L'informe es va fer fa 2 hores i 37 minuts, a les 12:00 UTC
Vent 6 kt del Nord
Temperatura 28°C
Humitat 74%
Pressió 1012 hPa
Visibilitat 10 km o més
Escasses núvols a una alçada de 1900 ft
Núvols disperses a una alçada de 8000 ft

METAR: RPVP 261200Z 36006KT 9999 FEW019 SCT080 28/23 Q1012 RMK A2988

Hora: 22:37 (14:37 UTC)

Pronòstic

L'informe es va fer fa 3 hores i 37 minuts, a les 11:00 UTC
Pronòstic vàlid del 26 a les 12 UTC al 27 a les 12 UTC
Vent 8 kt del Est
Visibilitat 10 km o més
Escasses núvols a una alçada de 1900 ft
Temporalment
l' 26 a les 15 UTC al 26 a les 21 UTC
Vent 4 kt del Oest
Escasses núvols a una alçada de 1900 ft
Núvols disperses a una alçada de 8000 ft
Temporalment
l' 27 a les 03 UTC al 27 a les 09 UTC
Vent 14 kt del Est

TAF: RPVP 261100Z 2612/2712 09008KT 9999 FEW019 TEMPO 2615/2621 26004KT FEW019 SCT080 TEMPO 2703/2709 10014KT

Observacions i pronòstics meteorològics de més de 4000 aeroports (METAR i TAF).

Les estacions disponibles són els punts grocs i vermells al mapa.

Posi el ratolí al punt desitjat per veure el nom de l'estació.

Feu clic per veure les observacions i els pronòstics meteorològics.

Per canviar el mapa: feu clic els botons verds amb una creu de color negre per apropar; al botó verd amb un guió per allunyar la imatge; o en les fletxes verdes per a mapes adjacents.


METAR-TAF: